Time;durP1;ratioP1;P1;durP2;ratioP2;P2;SDS_P1;SDS_P2;PMS_P1;PMS_P2;Temp;Humidity;BMP_temperature;BMP_pressure;BME280_temperature;BME280_humidity;BME280_pressure;Samples;Min_cycle;Max_cycle;Signal;HPM_P1;HPM_P2
2021/04/06 00:00:41;;;;;;;3.88;1.13;;;;;;;16.77;64.87;101478.16;6299118;22;20010;-79
2021/04/06 00:03:28;;;;;;;3.05;1.20;;;;;;;16.76;64.09;101492.00;6303634;22;19988;-79
2021/04/06 00:06:05;;;;;;;3.40;1.27;;;;;;;16.73;64.65;101494.59;6304535;22;19992;-79
2021/04/06 00:08:34;;;;;;;4.63;1.13;;;;;;;16.75;64.44;101484.22;6298764;22;20056;-79
2021/04/06 00:11:04;;;;;;;2.97;1.20;;;;;;;16.75;64.39;101494.63;6271037;22;20030;-80
2021/04/06 00:13:44;;;;;;;3.45;1.00;;;;;;;16.75;63.92;101498.06;6267390;22;20007;-79
2021/04/06 00:16:11;;;;;;;4.18;1.10;;;;;;;16.73;63.90;101493.72;6297571;22;20007;-79
2021/04/06 00:18:46;;;;;;;3.75;1.10;;;;;;;16.76;63.70;101502.41;6273806;22;20000;-80
2021/04/06 00:21:11;;;;;;;2.20;1.10;;;;;;;16.75;64.07;101494.63;6257030;22;20004;-79
2021/04/06 00:23:40;;;;;;;4.55;1.20;;;;;;;16.74;64.15;101490.25;6232377;22;20057;-79
2021/04/06 00:26:09;;;;;;;3.25;1.02;;;;;;;16.71;64.46;101498.06;6274301;22;20063;-79
2021/04/06 00:28:37;;;;;;;5.63;1.42;;;;;;;16.74;64.25;101503.25;6272805;22;20079;-79
2021/04/06 00:31:40;;;;;;;3.65;1.15;;;;;;;16.74;64.23;101509.31;6296817;22;20018;-79
2021/04/06 00:34:07;;;;;;;3.65;1.17;;;;;;;16.72;64.03;101508.44;6298495;22;20000;-79
2021/04/06 00:39:37;;;;;;;3.88;1.20;;;;;;;16.70;64.01;101506.69;6298715;22;20046;-79
2021/04/06 00:42:27;;;;;;;3.03;1.10;;;;;;;16.73;63.70;101515.38;6273881;22;20015;-79
2021/04/06 00:45:11;;;;;;;2.63;1.10;;;;;;;16.70;63.94;101509.28;6297922;22;20000;-79
2021/04/06 00:47:42;;;;;;;3.25;1.10;;;;;;;16.72;63.70;101503.22;6295421;22;20030;-79
2021/04/06 00:50:45;;;;;;;2.88;1.17;;;;;;;16.71;63.42;101508.44;6260389;22;20012;-79
2021/04/06 00:53:25;;;;;;;3.47;1.08;;;;;;;16.71;62.95;101519.72;6200004;23;20009;-79
2021/04/06 00:55:53;;;;;;;3.20;1.20;;;;;;;16.70;63.58;101511.88;6227655;23;20013;-79
2021/04/06 00:58:27;;;;;;;2.75;1.38;;;;;;;16.67;63.23;101508.41;6203686;23;20028;-79
2021/04/06 01:01:02;;;;;;;4.82;1.30;;;;;;;16.68;63.31;101504.09;6204590;23;20538;-79
2021/04/06 01:03:37;;;;;;;2.60;1.10;;;;;;;16.68;62.87;101504.09;6232426;23;20008;-79
2021/04/06 01:06:09;;;;;;;3.20;1.13;;;;;;;16.65;63.44;101512.72;6235780;22;20051;-79
2021/04/06 01:08:41;;;;;;;2.90;1.17;;;;;;;16.67;63.04;101517.94;6214570;23;20004;-79
2021/04/06 01:11:08;;;;;;;3.22;1.05;;;;;;;16.70;63.25;101522.28;6211937;23;20019;-79
2021/04/06 01:14:00;;;;;;;6.93;1.30;;;;;;;16.65;63.35;101522.28;6209240;23;20023;-79
2021/04/06 01:16:27;;;;;;;2.58;0.93;;;;;;;16.67;62.96;101508.41;6203927;23;20106;-79
2021/04/06 01:18:59;;;;;;;3.38;1.02;;;;;;;16.64;63.18;101508.41;6230112;23;20004;-79
2021/04/06 01:21:26;;;;;;;2.08;1.05;;;;;;;16.64;63.01;101499.75;6210813;23;20015;-79
2021/04/06 01:23:53;;;;;;;1.77;0.98;;;;;;;16.66;62.69;101503.22;6256531;22;20038;-79
2021/04/06 01:26:19;;;;;;;3.65;1.00;;;;;;;16.66;62.75;101516.22;6143422;22;3644105;-79
2021/04/06 01:28:48;;;;;;;3.40;1.15;;;;;;;16.67;62.81;101512.75;6277409;22;20010;-79
2021/04/06 01:31:14;;;;;;;3.08;1.13;;;;;;;16.65;62.79;101504.94;6302583;22;20019;-79
2021/04/06 01:33:43;;;;;;;3.42;1.20;;;;;;;16.64;62.80;101502.34;6302294;22;20015;-79
2021/04/06 01:36:09;;;;;;;3.88;1.00;;;;;;;16.62;62.56;101499.75;6277174;22;20011;-79
2021/04/06 01:38:40;;;;;;;3.15;1.00;;;;;;;16.66;62.84;101509.28;6275731;22;20007;-79
2021/04/06 01:41:06;;;;;;;2.17;0.98;;;;;;;16.65;62.89;101501.47;6302564;22;20015;-79
2021/04/06 01:43:48;;;;;;;1.58;0.73;;;;;;;16.61;62.70;101492.81;6274951;22;20023;-80
2021/04/06 01:46:28;;;;;;;2.90;0.93;;;;;;;16.66;62.34;101495.44;6295255;22;20004;-79
2021/04/06 01:49:01;;;;;;;3.10;0.95;;;;;;;16.64;62.44;101485.03;6278478;22;20053;-80
2021/04/06 01:51:27;;;;;;;4.63;1.30;;;;;;;16.63;62.30;101485.88;6303995;22;19996;-80
2021/04/06 01:53:56;;;;;;;3.30;1.08;;;;;;;16.63;62.32;101493.66;6302923;22;20035;-79
2021/04/06 01:57:19;;;;;;;3.42;1.05;;;;;;;16.62;62.62;101485.88;6302862;22;20006;-80
2021/04/06 01:59:27;;;;;;;2.67;1.10;;;;;;;16.64;62.33;101502.34;6266851;22;20285;-80
2021/04/06 02:01:57;;;;;;;2.08;1.10;;;;;;;16.63;62.31;101492.81;6292767;22;20007;-79
2021/04/06 02:04:30;;;;;;;2.97;1.05;;;;;;;16.63;62.01;101506.66;6296009;22;19999;-79
2021/04/06 02:06:58;;;;;;;2.20;0.90;;;;;;;16.62;62.32;101507.53;6295313;22;20060;-79
2021/04/06 02:09:24;;;;;;;2.28;0.80;;;;;;;16.63;62.25;101522.25;6296461;22;19999;-79
2021/04/06 02:12:07;;;;;;;3.60;0.90;;;;;;;16.64;61.93;101507.56;6270244;22;20034;-80
2021/04/06 02:14:41;;;;;;;2.88;1.10;;;;;;;16.61;61.84;101500.63;6293311;22;20015;-79
2021/04/06 02:17:26;;;;;;;2.75;0.88;;;;;;;16.62;62.08;101494.53;6299439;22;20000;-79
2021/04/06 02:19:51;;;;;;;2.88;1.00;;;;;;;16.62;61.93;101481.56;6297313;22;20027;-81
2021/04/06 02:22:20;;;;;;;2.17;1.05;;;;;;;16.62;61.92;101485.88;6272987;22;20019;-79
2021/04/06 02:25:07;;;;;;;2.85;0.95;;;;;;;16.62;61.77;101481.56;6278153;22;20156;-80
2021/04/06 02:27:40;;;;;;;2.38;0.77;;;;;;;16.61;61.60;101485.03;6296245;22;20030;-79
2021/04/06 02:30:32;;;;;;;2.42;0.90;;;;;;;16.63;61.54;101491.06;6305556;22;19988;-79
2021/04/06 02:33:00;;;;;;;4.68;0.90;;;;;;;16.60;61.52;101487.59;6239261;22;20017;-79
2021/04/06 02:35:27;;;;;;;1.92;0.90;;;;;;;16.61;61.41;101499.72;6235915;23;20356;-80
2021/04/06 02:37:57;;;;;;;2.45;0.70;;;;;;;16.60;61.71;101493.66;6234831;23;20009;-80
2021/04/06 02:40:26;;;;;;;1.92;0.85;;;;;;;16.57;61.66;101493.66;6236259;23;20051;-80
2021/04/06 02:43:03;;;;;;;2.85;0.90;;;;;;;16.60;61.26;101498.00;6233452;23;20011;-80
2021/04/06 02:45:30;;;;;;;1.85;0.85;;;;;;;16.56;61.42;101489.31;6209679;23;20008;-80
2021/04/06 02:48:05;;;;;;;2.03;0.82;;;;;;;16.58;61.49;101490.19;6209350;23;20008;-79
2021/04/06 02:50:34;;;;;;;1.77;0.70;;;;;;;16.58;61.48;101497.13;6232475;23;20001;-80
2021/04/06 02:53:10;;;;;;;2.42;0.82;;;;;;;16.59;61.27;101496.25;6229679;23;20013;-80
2021/04/06 02:55:54;;;;;;;;;;;;;;;16.60;61.47;101498.88;6230946;23;20019;-80
2021/04/06 02:58:21;;;;;;;2.28;0.82;;;;;;;16.58;61.07;101508.38;6204676;23;20321;-80
2021/04/06 03:00:47;;;;;;;2.55;1.00;;;;;;;16.58;61.37;101512.72;6231821;23;20005;-80
2021/04/06 03:03:21;;;;;;;2.17;0.90;;;;;;;16.59;61.24;101514.44;6232966;23;20000;-80
2021/04/06 03:06:12;;;;;;;2.15;0.90;;;;;;;16.54;61.17;101501.41;6232922;23;20064;-80
2021/04/06 03:08:41;;;;;;;2.47;0.82;;;;;;;16.57;60.90;101497.97;6206665;23;20064;-80
2021/04/06 03:11:17;;;;;;;5.28;0.90;;;;;;;16.59;60.82;101488.44;6258882;22;20003;-80
2021/04/06 03:13:45;;;;;;;2.22;0.90;;;;;;;16.57;60.86;101484.97;6273244;22;20010;-80
2021/04/06 03:16:11;;;;;;;2.90;1.10;;;;;;;16.55;61.04;101472.00;6270501;22;19999;-80
2021/04/06 03:18:44;;;;;;;4.05;1.00;;;;;;;16.56;60.79;101470.25;6294852;22;20027;-80
2021/04/06 03:21:16;;;;;;;1.35;0.65;;;;;;;16.56;61.32;101473.72;6295901;22;20485;-80
2021/04/06 03:23:43;;;;;;;2.95;0.85;;;;;;;16.59;60.87;101470.25;6296895;22;19999;-79
2021/04/06 03:26:15;;;;;;;2.83;1.00;;;;;;;16.59;60.76;101470.25;6267635;22;20004;-80
2021/04/06 03:28:45;;;;;;;3.40;0.80;;;;;;;16.58;60.68;101466.81;6270135;22;20016;-80
2021/04/06 03:34:02;;;;;;;2.15;0.98;;;;;;;16.56;60.63;101485.84;6296660;22;20075;-80
2021/04/06 03:36:30;;;;;;;2.75;0.93;;;;;;;16.57;60.73;101495.38;6271969;22;20311;-80
2021/04/06 03:39:27;;;;;;;3.13;0.80;;;;;;;16.57;60.54;101500.56;6299469;22;20004;-80
2021/04/06 03:41:54;;;;;;;1.92;0.88;;;;;;;16.55;60.59;101486.69;6298978;22;20007;-81
2021/04/06 03:44:30;;;;;;;2.55;0.88;;;;;;;16.54;60.46;101475.44;6300448;22;19999;-80
2021/04/06 03:47:15;;;;;;;2.45;0.75;;;;;;;16.55;60.50;101474.59;6271268;22;20074;-80
2021/04/06 03:53:08;;;;;;;1.40;0.60;;;;;;;16.55;60.45;101473.69;6300286;22;20066;-80
2021/04/06 03:55:37;;;;;;;2.08;0.70;;;;;;;16.54;60.61;101484.97;6302571;22;19984;-80
2021/04/06 03:58:13;;;;;;;1.70;0.70;;;;;;;16.52;60.53;101478.91;6276127;22;20003;-80
2021/04/06 04:00:40;;;;;;;2.00;0.88;;;;;;;16.52;60.37;101471.97;6278189;22;19992;-80
2021/04/06 04:03:07;;;;;;;2.15;0.80;;;;;;;16.50;60.49;101473.69;6276171;22;20012;-81
2021/04/06 04:05:38;;;;;;;3.00;0.75;;;;;;;16.48;60.53;101496.19;6298975;22;19996;-80
2021/04/06 04:08:16;;;;;;;1.60;0.70;;;;;;;16.48;60.52;101503.97;6259913;22;20047;-80
2021/04/06 04:10:51;;;;;;;2.00;0.60;;;;;;;16.52;60.32;101502.28;6236790;23;20011;-80
2021/04/06 04:13:21;;;;;;;2.40;0.93;;;;;;;16.51;60.33;101505.75;6234125;23;20012;-80
2021/04/06 04:15:49;;;;;;;1.90;0.80;;;;;;;16.50;60.08;101489.28;6209756;23;20039;-80
2021/04/06 04:18:20;;;;;;;2.20;0.70;;;;;;;16.52;60.22;101491.88;6247449;22;20016;-81
2021/04/06 04:20:50;;;;;;;3.15;0.90;;;;;;;16.50;60.50;101480.63;6266400;22;20016;-80
2021/04/06 04:23:34;;;;;;;1.08;0.60;;;;;;;16.50;60.06;101478.88;6297074;22;20031;-80
2021/04/06 04:26:17;;;;;;;1.77;0.70;;;;;;;16.53;60.24;101473.72;6270231;22;20008;-80
2021/04/06 04:29:03;;;;;;;2.67;0.98;;;;;;;16.52;60.14;101479.75;6271979;22;20025;-79
2021/04/06 04:31:30;;;;;;;2.03;0.60;;;;;;;16.51;60.24;101478.03;6298854;22;20007;-80
2021/04/06 04:34:17;;;;;;;2.80;0.90;;;;;;;16.50;60.35;101473.69;6301993;22;19996;-80
2021/04/06 04:36:43;;;;;;;3.20;0.85;;;;;;;16.49;59.92;101458.09;6275900;22;20008;-80
2021/04/06 04:39:11;;;;;;;2.13;0.82;;;;;;;16.51;60.14;101465.03;6248473;22;20003;-80
2021/04/06 04:41:55;;;;;;;1.77;0.80;;;;;;;16.52;59.83;101464.16;6300032;22;20000;-80
2021/04/06 04:44:22;;;;;;;2.70;0.60;;;;;;;16.50;59.91;101473.69;6296318;22;20019;-80
2021/04/06 04:47:16;;;;;;;2.97;0.85;;;;;;;16.52;59.95;101484.94;6294174;22;20030;-80
2021/04/06 04:49:58;;;;;;;2.03;0.77;;;;;;;16.52;60.08;101491.88;6275120;22;20058;-80
2021/04/06 04:55:57;;;;;;;1.80;0.60;;;;;;;16.56;59.86;101476.31;6300763;22;20022;-80
2021/04/06 04:58:24;;;;;;;2.35;0.77;;;;;;;16.53;59.54;101468.53;6207165;23;20021;-80
2021/04/06 05:04:32;;;;;;;1.63;0.73;;;;;;;16.53;59.40;101452.94;6257835;22;20030;-80
2021/04/06 05:07:06;;;;;;;2.03;0.70;;;;;;;16.51;59.54;101448.59;6331028;22;20007;-80
2021/04/06 05:09:53;;;;;;;3.42;0.82;;;;;;;16.52;60.06;101447.72;6331796;22;20007;-80
2021/04/06 05:12:33;;;;;;;2.35;0.80;;;;;;;16.57;59.67;101435.59;6310937;22;20012;-78
2021/04/06 05:15:12;;;;;;;5.70;0.88;;;;;;;16.59;60.40;101441.69;6298561;22;19999;-78
2021/04/06 05:17:39;;;;;;;9.73;2.42;;;;;;;16.58;60.84;101433.03;6275469;22;20004;-78
2021/04/06 05:20:37;;;;;;;11.48;2.40;;;;;;;16.76;59.71;101433.94;6298653;22;19998;-79
2021/04/06 05:23:33;;;;;;;6.20;1.67;;;;;;;16.92;58.95;101435.78;6297831;22;20034;-79
2021/04/06 05:26:19;;;;;;;3.05;1.50;;;;;;;17.01;58.54;101430.59;6238541;22;20025;-79
2021/04/06 05:29:14;;;;;;;7.18;1.60;;;;;;;17.03;58.52;101434.06;6222266;23;20026;-79
2021/04/06 05:32:05;;;;;;;4.40;1.52;;;;;;;17.06;58.55;101436.66;6244256;23;20034;-78
2021/04/06 05:34:40;;;;;;;6.03;1.50;;;;;;;17.11;58.25;101433.22;6264403;22;20015;-78
2021/04/06 05:37:09;;;;;;;5.72;1.33;;;;;;;17.09;58.25;101435.81;6285256;22;20016;-80
2021/04/06 05:39:59;;;;;;;3.13;1.30;;;;;;;17.12;58.14;101432.38;6270669;22;20028;-80
2021/04/06 05:43:04;;;;;;;5.43;1.48;;;;;;;17.14;57.86;101436.69;6278777;22;20038;-79
2021/04/06 05:45:58;;;;;;;5.47;1.45;;;;;;;17.13;57.94;101432.34;6301937;22;20029;-79
2021/04/06 05:48:26;;;;;;;3.65;1.67;;;;;;;17.16;57.93;101437.56;6274310;22;20416;-79
2021/04/06 05:51:20;;;;;;;3.88;1.30;;;;;;;17.18;58.02;101435.84;6302803;22;20000;-79
2021/04/06 05:54:24;;;;;;;5.13;1.20;;;;;;;17.15;57.89;101446.22;6215025;23;20035;-81
2021/04/06 05:56:51;;;;;;;6.53;1.20;;;;;;;17.15;58.00;101450.56;6274698;22;20060;-79
2021/04/06 05:59:31;;;;;;;6.80;1.00;;;;;;;17.19;57.82;101467.91;6278032;22;20008;-79
2021/04/06 06:01:57;;;;;;;2.97;1.20;;;;;;;17.27;57.67;101468.81;6302898;22;20074;-79
2021/04/06 06:04:24;;;;;;;3.28;1.10;;;;;;;17.34;57.36;101477.50;6277210;22;20003;-79
2021/04/06 06:06:59;;;;;;;1.95;1.00;;;;;;;17.30;57.13;101499.16;6295797;22;20007;-79
2021/04/06 06:09:48;;;;;;;2.38;0.90;;;;;;;17.26;57.57;101480.91;6304625;22;20011;-79
2021/04/06 06:13:02;;;;;;;2.45;0.98;;;;;;;17.22;57.61;101478.31;6304634;22;20015;-79
2021/04/06 06:15:29;;;;;;;2.53;1.10;;;;;;;17.20;57.54;101460.13;6303427;22;19996;-78
2021/04/06 06:18:14;;;;;;;2.13;1.00;;;;;;;17.24;57.69;101459.22;6212783;23;20009;-79
2021/04/06 06:20:53;;;;;;;2.08;0.93;;;;;;;17.28;57.58;101463.59;6213131;23;20084;-78
2021/04/06 06:23:58;;;;;;;2.33;0.80;;;;;;;17.38;56.96;101468.81;6188285;23;20005;-79
2021/04/06 06:26:50;;;;;;;3.08;0.88;;;;;;;17.42;56.75;101461.03;6212866;23;20009;-79
2021/04/06 06:29:58;;;;;;;3.30;1.30;;;;;;;17.46;56.66;101467.06;6213095;23;19993;-79
2021/04/06 06:32:37;;;;;;;3.15;1.10;;;;;;;17.39;57.01;101455.78;6266146;22;20030;-79
2021/04/06 06:37:51;;;;;;;2.42;1.02;;;;;;;18.53;54.04;101457.44;6269730;22;20067;-80
2021/04/06 06:40:39;;;;;;;1.98;0.80;;;;;;;18.34;54.15;101461.84;6249889;22;20003;-80
2021/04/06 06:43:17;;;;;;;2.53;0.90;;;;;;;18.73;53.15;101454.72;6208603;23;20021;-88
2021/04/06 06:45:43;;;;;;;2.42;1.17;;;;;;;18.82;53.03;101465.19;6208421;23;20020;-85
2021/04/06 06:48:33;;;;;;;2.35;0.90;;;;;;;18.68;53.00;101466.06;6205075;23;20013;-85
2021/04/06 06:54:40;;;;;;;2.30;0.88;;;;;;;17.77;55.59;101454.97;6212702;23;20015;-79
2021/04/06 06:57:19;;;;;;;;;;;;;;;17.68;56.17;101463.63;6212949;23;20045;-79
2021/04/06 06:59:53;;;;;;;2.75;1.00;;;;;;;17.65;56.02;101450.59;6210776;23;19893;-80
2021/04/06 07:02:27;;;;;;;1.67;0.70;;;;;;;17.65;56.21;101448.00;6206059;23;20005;-79
2021/04/06 07:05:18;;;;;;;3.20;0.90;;;;;;;17.65;56.19;101441.94;6205593;23;20269;-79
2021/04/06 07:08:06;;;;;;;2.50;0.82;;;;;;;17.70;56.06;101442.78;6200926;23;20016;-79
2021/04/06 07:10:58;;;;;;;1.52;0.70;;;;;;;17.82;55.68;101440.22;6184744;23;20048;-80
2021/04/06 07:13:36;;;;;;;2.00;0.80;;;;;;;17.64;56.34;101442.81;6210036;23;19993;-79
2021/04/06 07:16:35;;;;;;;2.72;0.88;;;;;;;17.65;56.27;101441.94;6161725;23;19993;-81
2021/04/06 07:19:09;;;;;;;1.80;0.95;;;;;;;19.40;52.18;101430.91;6185385;23;20009;-85
2021/04/06 07:21:36;;;;;;;2.70;1.00;;;;;;;20.47;48.90;101423.78;6188489;23;20024;-91
2021/04/06 07:24:09;;;;;;;1.40;0.82;;;;;;;20.35;48.80;101416.06;6187053;23;20009;-91
2021/04/06 07:26:34;;;;;;;2.78;0.90;;;;;;;19.04;52.26;101425.06;6183360;23;20008;-87
2021/04/06 07:29:00;;;;;;;2.10;1.00;;;;;;;18.55;53.50;101427.88;6228173;23;20030;-86
2021/04/06 07:34:49;;;;;;;1.60;0.90;;;;;;;20.15;50.00;101424.13;6255546;22;20332;-90
2021/04/06 07:37:15;;;;;;;1.50;0.90;;;;;;;20.43;48.79;101419.47;6223855;23;20206;-89
2021/04/06 07:39:41;;;;;;;1.80;0.73;;;;;;;19.48;51.22;101423.00;6198439;23;20427;-92
2021/04/06 07:42:08;;;;;;;3.45;0.80;;;;;;;20.77;48.50;101423.41;6221178;23;20083;-89
2021/04/06 07:44:38;;;;;;;1.02;0.70;;;;;;;21.43;46.69;101414.63;6221686;23;20010;-87
2021/04/06 07:47:04;;;;;;;2.10;0.82;;;;;;;20.82;48.08;101426.81;6250277;23;20446;-86
2021/04/06 07:49:30;;;;;;;1.20;0.65;;;;;;;20.95;47.72;101423.19;6223445;23;20033;-90
2021/04/06 07:51:57;;;;;;;1.13;0.70;;;;;;;21.36;46.97;101427.78;6248120;23;20079;-89
2021/04/06 07:54:43;;;;;;;4.38;1.00;;;;;;;21.53;46.59;101432.75;6223985;23;20000;-88
2021/04/06 07:57:09;;;;;;;1.35;0.70;;;;;;;21.66;46.32;101419.47;6222332;23;20035;-87
2021/04/06 07:59:34;;;;;;;1.33;0.70;;;;;;;21.78;46.06;101427.13;6224358;23;20012;-87
2021/04/06 08:02:01;;;;;;;1.88;0.77;;;;;;;21.62;46.38;101420.41;6249019;23;20105;-84
2021/04/06 08:04:45;;;;;;;1.48;0.75;;;;;;;20.77;48.48;101424.28;6253299;23;20030;-84
2021/04/06 08:07:19;;;;;;;1.60;0.80;;;;;;;20.98;48.72;101423.13;6221830;23;20000;-83
2021/04/06 08:09:49;;;;;;;2.30;0.88;;;;;;;20.78;48.95;101419.94;6219290;23;20004;-83
2021/04/06 08:12:26;;;;;;;1.13;0.80;;;;;;;19.42;51.96;101439.56;6243676;23;20077;-87
2021/04/06 08:15:02;;;;;;;0.90;0.50;;;;;;;18.83;53.34;101448.63;6245840;23;20083;-88
2021/04/06 08:17:27;;;;;;;1.02;0.50;;;;;;;18.62;53.81;101442.63;6219461;23;20000;-85
2021/04/06 08:20:12;;;;;;;2.13;0.90;;;;;;;18.70;53.90;101435.66;6228461;23;20009;-87
2021/04/06 08:22:37;;;;;;;1.45;0.80;;;;;;;19.33;52.20;101432.66;6218171;23;20095;-87
2021/04/06 08:25:15;;;;;;;1.58;0.65;;;;;;;20.09;50.29;101430.28;6218839;23;20027;-86
2021/04/06 08:27:41;;;;;;;1.88;0.70;;;;;;;20.14;50.52;101443.28;6218631;23;20015;-88
2021/04/06 08:30:18;;;;;;;1.77;0.80;;;;;;;19.83;50.96;101438.38;6220667;23;20024;-91
2021/04/06 08:33:03;;;;;;;1.70;0.70;;;;;;;19.90;50.55;101444.41;6247854;23;20012;-87
2021/04/06 08:35:44;;;;;;;1.17;0.70;;;;;;;19.40;52.06;101438.75;6219174;23;20012;-87
2021/04/06 08:38:26;;;;;;;0.80;0.47;;;;;;;18.98;52.67;101445.94;6222150;23;20011;-85
2021/04/06 08:43:51;;;;;;;1.20;0.50;;;;;;;18.60;53.85;101454.81;6301834;22;20366;-84
2021/04/06 09:56:39;;;;;;;1.73;0.70;;;;;;;18.16;54.91;101444.50;6275621;22;20035;-80
2021/04/06 10:52:24;;;;;;;1.33;0.73;;;;;;;18.03;54.86;101400.28;6254415;22;20011;-80
2021/04/06 11:54:31;;;;;;;1.25;0.60;;;;;;;18.12;53.99;101404.59;6276469;22;20014;-82
2021/04/06 11:56:58;;;;;;;1.35;0.50;;;;;;;18.05;54.33;101403.75;6272913;22;20019;-80
2021/04/06 11:59:24;;;;;;;1.30;0.60;;;;;;;18.02;54.25;101395.91;6299864;22;20407;-81
2021/04/06 12:01:58;;;;;;;1.90;0.70;;;;;;;18.03;54.47;101382.03;6271666;22;20082;-82
2021/04/06 12:04:28;;;;;;;2.95;0.70;;;;;;;18.05;54.10;101376.81;6302551;22;20055;-82
2021/04/06 12:14:21;;;;;;;1.63;0.70;;;;;;;18.12;54.15;101365.53;6211006;23;20028;-81
2021/04/06 12:23:10;;;;;;;1.05;0.60;;;;;;;18.18;53.65;101352.47;6298852;22;20094;-82
2021/04/06 12:30:51;;;;;;;0.90;0.50;;;;;;;18.13;53.84;101358.56;6243033;22;20011;-82
2021/04/06 12:33:43;;;;;;;1.27;0.60;;;;;;;18.09;53.88;101352.50;6239605;23;20005;-81
2021/04/06 12:36:11;;;;;;;1.40;0.63;;;;;;;18.12;53.77;101347.28;6242066;23;20001;-81
2021/04/06 12:38:48;;;;;;;1.00;0.47;;;;;;;18.15;53.36;101347.25;6239477;23;20004;-81
2021/04/06 12:45:29;;;;;;;1.02;0.55;;;;;;;18.27;52.88;101342.00;6273051;22;20022;31
2021/04/06 12:48:31;;;;;;;1.45;0.60;;;;;;;18.29;53.14;101357.63;6267889;22;20075;-83
2021/04/06 12:51:13;;;;;;;1.42;0.60;;;;;;;18.28;53.18;101354.16;6267334;23;20079;-82
2021/04/06 12:57:54;;;;;;;1.08;0.50;;;;;;;18.20;53.16;101340.28;6272618;22;20015;-82
2021/04/06 14:02:31;;;;;;;1.10;0.50;;;;;;;18.25;52.90;101329.88;6283778;22;20007;-84
2021/04/06 14:08:51;;;;;;;0.88;0.50;;;;;;;18.37;52.73;101323.72;6284606;22;20007;-86
2021/04/06 15:40:36;;;;;;;1.80;0.50;;;;;;;18.55;53.09;101336.66;6294265;22;20031;-87
2021/04/06 16:41:32;;;;;;;2.60;0.60;;;;;;;18.08;53.43;101385.50;6272104;22;20079;-81
2021/04/06 16:43:59;;;;;;;0.50;0.40;;;;;;;18.02;53.31;101376.84;6302750;22;20071;-80
2021/04/06 16:46:44;;;;;;;1.80;0.70;;;;;;;17.97;53.52;101395.06;6276575;22;19995;-80
2021/04/06 16:49:53;;;;;;;2.72;0.57;;;;;;;17.98;53.33;101393.31;6209577;23;20005;-81
2021/04/06 16:58:14;;;;;;;1.02;0.60;;;;;;;17.97;53.35;101366.44;6254637;22;20024;-80
2021/04/06 17:01:25;;;;;;;4.50;0.82;;;;;;;18.01;53.42;101370.75;6210867;23;20033;-82
2021/04/06 17:20:26;;;;;;;4.45;1.27;;;;;;;17.96;55.67;101428.91;6302181;22;20095;-83
2021/04/06 21:23:56;;;;;;;3.13;0.90;;;;;;;17.41;55.78;101461.88;6230326;22;20024;-82
2021/04/06 23:32:11;;;;;;;2.47;0.80;;;;;;;17.32;54.22;101503.50;6270441;22;20000;-81
